Shemah Yisrael!
Hear, O Israel: the LORD our God, the LORD is one.
You shall love the LORD your God with all your heart and with all your soul and with all your might.
(Deuteronomy 6:4-5)
Houston / Ellington, TX, United States (KEFD) 29-36N 095-10W
Jan 20, 2020 - 03:50 PM EST / 2020.01.20 2050 UTC
Wind: from the N (350 degrees) at 12 MPH (10 KT) gusting to 18 MPH (16 KT):0
Visibility: 10 mile(s):0
Sky conditions: mostly clear
Temperature: 60 F (16 C)
Dew Point: 26 F (-3 C)
Relative Humidity: 26%
Pressure (altimeter): 30.47 in. Hg (1031 hPa)
ob: KEFD 202050Z 35010G16KT 10SM FEW250 16/M03 A3047 
cycle: 21
w e b m a s t e r   a t   s h e m a h   d o t   n e t